Time;durP1;ratioP1;P1;durP2;ratioP2;P2;SDS_P1;SDS_P2;PMS_P1;PMS_P2;Temp;Humidity;BMP_temperature;BMP_pressure;BME280_temperature;BME280_humidity;BME280_pressure;Samples;Min_cycle;Max_cycle;Signal;HPM_P1;HPM_P2
2022/02/01 00:02:08;;;;;;;16.98;3.08;;;4.00;99.90;;;;;;5049815;28;20083;-60
2022/02/01 00:04:42;;;;;;;14.52;2.25;;;4.00;99.90;;;;;;5049967;28;20067;-60
2022/02/01 00:10:13;;;;;;;17.58;3.45;;;4.00;99.90;;;;;;5049877;28;20438;-60
2022/02/01 00:12:53;;;;;;;21.25;2.85;;;4.00;99.90;;;;;;5048920;28;20045;-59
2022/02/01 00:34:37;;;;;;;15.98;2.35;;;4.40;99.90;;;;;;4970856;28;20046;-59
2022/02/01 00:37:04;;;;;;;11.98;2.47;;;4.30;99.90;;;;;;4970380;28;20552;-59
2022/02/01 00:39:32;;;;;;;20.83;3.15;;;4.30;99.90;;;;;;5011591;28;20496;-60
2022/02/01 00:41:58;;;;;;;24.73;2.87;;;4.30;99.90;;;;;;5029471;28;20045;-59
2022/02/01 00:44:25;;;;;;;13.38;2.17;;;4.40;99.90;;;;;;5029730;28;20125;-60
2022/02/01 00:46:51;;;;;;;22.90;2.75;;;4.40;99.90;;;;;;5029363;28;20508;-60
2022/02/01 00:49:17;;;;;;;18.52;3.30;;;4.40;99.90;;;;;;5029480;28;20455;-59
2022/02/01 00:51:43;;;;;;;22.85;2.55;;;4.40;99.90;;;;;;5029604;28;20152;-59
2022/02/01 00:54:09;;;;;;;18.58;2.60;;;4.40;99.90;;;;;;5013053;28;20057;-59
2022/02/01 00:56:35;;;;;;;20.08;2.85;;;4.40;99.90;;;;;;5029592;28;20044;-59
2022/02/01 00:59:00;;;;;;;22.40;2.17;;;4.40;99.90;;;;;;5035921;28;20114;-59
2022/02/01 01:01:26;;;;;;;19.63;2.65;;;4.40;99.90;;;;;;5094072;28;20032;-59
2022/02/01 01:03:52;;;;;;;13.20;2.63;;;4.40;99.90;;;;;;5093687;28;20047;-59
2022/02/01 01:06:17;;;;;;;16.23;2.63;;;4.40;99.90;;;;;;5112135;28;20032;-60
2022/02/01 01:08:43;;;;;;;17.27;2.78;;;4.50;99.90;;;;;;5112024;28;20088;-59
2022/02/01 01:11:11;;;;;;;19.33;2.67;;;4.40;99.90;;;;;;5112029;28;20164;-59
2022/02/01 01:14:05;;;;;;;15.40;2.60;;;4.50;99.90;;;;;;5111840;28;20055;-59
2022/02/01 01:53:58;;;;;;;14.23;3.60;;;4.40;99.90;;;;;;5032803;28;20436;-58
2022/02/01 01:56:24;;;;;;;20.50;2.45;;;4.30;99.90;;;;;;5032514;28;20391;-59
2022/02/01 01:58:49;;;;;;;17.50;2.50;;;4.30;99.90;;;;;;5015876;28;20160;-59
2022/02/01 02:01:15;;;;;;;14.10;2.15;;;4.30;99.90;;;;;;5015504;28;20551;-59
2022/02/01 02:03:45;;;;;;;15.10;2.47;;;4.30;99.90;;;;;;5032297;28;20042;-59
2022/02/01 02:06:14;;;;;;;11.88;1.92;;;4.30;99.90;;;;;;5032363;28;20144;-59
2022/02/01 02:08:44;;;;;;;14.65;2.30;;;4.30;99.90;;;;;;5032227;28;20049;-59
2022/02/01 02:11:14;;;;;;;10.93;1.73;;;4.30;99.90;;;;;;5032175;28;20041;-59
2022/02/01 02:16:35;;;;;;;10.82;1.92;;;4.20;99.90;;;;;;5114601;28;20509;-58
2022/02/01 02:19:02;;;;;;;11.15;1.85;;;4.30;99.90;;;;;;5114950;28;20039;-59
2022/02/01 02:21:27;;;;;;;12.35;2.45;;;4.30;99.90;;;;;;5114451;28;20599;-59
2022/02/01 02:23:53;;;;;;;8.82;1.50;;;4.30;99.90;;;;;;5114723;28;20110;-59
2022/02/01 02:26:19;;;;;;;15.40;2.72;;;4.40;99.90;;;;;;5114522;28;20042;-60
2022/02/01 02:28:46;;;;;;;15.93;2.53;;;4.30;99.90;;;;;;5113781;28;20090;-60
2022/02/01 02:31:12;;;;;;;13.32;2.38;;;4.30;99.90;;;;;;5113963;28;20058;-59
2022/02/01 02:33:38;;;;;;;9.05;2.10;;;4.30;99.90;;;;;;5114836;28;20043;-59
2022/02/01 02:36:12;;;;;;;10.75;2.17;;;4.40;99.90;;;;;;5096035;28;20054;-60
2022/02/01 02:41:27;;;;;;;10.40;2.35;;;4.50;99.90;;;;;;5114363;28;20132;-59
2022/02/01 02:46:41;;;;;;;12.32;2.63;;;4.50;99.90;;;;;;5114111;28;20047;-60
2022/02/01 02:49:09;;;;;;;11.30;1.65;;;4.50;99.90;;;;;;5114370;28;20040;-59
2022/02/01 02:51:35;;;;;;;11.13;1.85;;;4.50;99.90;;;;;;5114233;28;20043;-59
2022/02/01 02:54:06;;;;;;;7.88;1.60;;;4.50;99.90;;;;;;5114119;28;20126;-59
2022/02/01 02:56:32;;;;;;;10.02;1.67;;;4.40;99.90;;;;;;5114360;28;20111;-59
2022/02/01 02:58:59;;;;;;;12.38;1.60;;;4.40;99.90;;;;;;5114101;28;20039;-59
2022/02/01 03:01:24;;;;;;;6.55;1.10;;;4.30;99.90;;;;;;5095906;28;20043;-58
2022/02/01 03:03:50;;;;;;;5.68;1.00;;;4.30;99.90;;;;;;5114045;28;20038;-58
2022/02/01 03:06:16;;;;;;;8.68;1.92;;;4.30;99.90;;;;;;5113849;28;20047;-59
2022/02/01 03:08:41;;;;;;;4.88;1.10;;;4.30;99.90;;;;;;5113867;28;20393;-59
2022/02/01 03:11:13;;;;;;;8.25;1.27;;;4.20;99.90;;;;;;5114246;28;20039;-59
2022/02/01 03:13:54;;;;;;;7.45;1.85;;;4.20;99.90;;;;;;5095800;28;20142;-59
2022/02/01 03:21:33;;;;;;;7.20;1.17;;;4.20;99.90;;;;;;5113619;28;20289;-59
2022/02/01 03:23:59;;;;;;;7.70;1.77;;;4.10;99.90;;;;;;5113472;28;20089;-59
2022/02/01 03:26:25;;;;;;;5.45;1.00;;;4.10;99.90;;;;;;5113192;28;20039;-60
2022/02/01 03:28:50;;;;;;;7.15;1.40;;;4.00;99.90;;;;;;5113242;28;20085;-59
2022/02/01 03:31:17;;;;;;;7.82;1.33;;;4.00;99.90;;;;;;5113174;28;20044;-59
2022/02/01 03:33:43;;;;;;;4.93;0.90;;;4.00;99.90;;;;;;5112958;28;20050;-60
2022/02/01 03:36:09;;;;;;;5.60;0.90;;;3.90;99.90;;;;;;5113355;28;20118;-60
2022/02/01 03:38:35;;;;;;;6.40;1.20;;;3.90;99.90;;;;;;5078008;28;20162;-60
2022/02/01 03:41:01;;;;;;;7.72;2.03;;;3.90;99.90;;;;;;5113009;28;20036;-60
2022/02/01 03:43:27;;;;;;;8.07;1.20;;;3.90;99.90;;;;;;5112961;28;20079;-60
2022/02/01 03:45:53;;;;;;;4.15;1.45;;;3.80;99.90;;;;;;5112805;28;20456;-59
2022/02/01 03:48:18;;;;;;;8.35;1.40;;;3.80;99.90;;;;;;5112801;28;20048;-59
2022/02/01 03:50:44;;;;;;;11.98;1.70;;;3.80;99.90;;;;;;5113062;28;20054;-60
2022/02/01 03:53:10;;;;;;;11.48;1.45;;;3.70;99.90;;;;;;5094851;28;20043;-60
2022/02/01 03:55:36;;;;;;;7.03;1.08;;;3.80;99.90;;;;;;5112668;28;20118;-60
2022/02/01 03:58:03;;;;;;;7.68;1.10;;;3.80;99.90;;;;;;5113176;28;20051;-60
2022/02/01 04:00:29;;;;;;;8.85;1.50;;;3.80;99.90;;;;;;5112867;28;20035;-60
2022/02/01 04:02:55;;;;;;;8.65;1.20;;;3.80;99.90;;;;;;5112553;28;20039;-59
2022/02/01 04:05:21;;;;;;;8.65;1.33;;;3.90;99.90;;;;;;5112839;28;20497;-60
2022/02/01 04:07:48;;;;;;;9.73;1.70;;;3.90;99.90;;;;;;5112798;28;20035;-59
2022/02/01 04:10:15;;;;;;;12.10;1.63;;;4.00;99.90;;;;;;5112665;28;20035;-59
2022/02/01 04:12:41;;;;;;;12.15;1.88;;;4.10;99.90;;;;;;5112654;28;20073;-60
2022/02/01 04:15:08;;;;;;;11.73;2.22;;;4.20;99.90;;;;;;5094227;28;20050;-60
2022/02/01 04:17:34;;;;;;;5.95;1.50;;;4.20;99.90;;;;;;5112806;28;20043;-59
2022/02/01 04:20:00;;;;;;;10.88;1.40;;;4.20;99.90;;;;;;5112560;28;20039;-60
2022/02/01 04:22:26;;;;;;;12.90;1.67;;;4.20;99.90;;;;;;5094447;28;20390;-60
2022/02/01 04:24:52;;;;;;;12.60;1.60;;;4.20;99.90;;;;;;5112537;28;20043;-60
2022/02/01 04:27:39;;;;;;;9.27;1.95;;;4.30;99.90;;;;;;5112341;28;20031;-60
2022/02/01 04:30:13;;;;;;;9.75;1.67;;;4.20;99.90;;;;;;5112034;28;20039;-60
2022/02/01 04:32:46;;;;;;;7.40;1.40;;;4.10;99.90;;;;;;5093467;28;20451;-60
2022/02/01 04:35:16;;;;;;;13.55;1.83;;;4.10;99.90;;;;;;5112404;28;20042;-60
2022/02/01 04:37:41;;;;;;;;;;;4.00;99.90;;;;;;5093663;28;20043;-60
2022/02/01 04:40:10;;;;;;;12.30;2.25;;;4.10;99.90;;;;;;5112345;28;19922;-60
2022/02/01 04:42:38;;;;;;;13.60;2.60;;;4.10;99.90;;;;;;5112227;28;20481;-59
2022/02/01 04:45:05;;;;;;;9.25;1.25;;;4.00;99.90;;;;;;5112622;28;20118;-60
2022/02/01 04:47:34;;;;;;;9.73;1.75;;;4.00;99.90;;;;;;5112442;28;20055;-60
2022/02/01 04:50:04;;;;;;;9.52;1.83;;;4.00;99.90;;;;;;5112432;28;20073;-60
2022/02/01 04:52:31;;;;;;;10.38;1.40;;;4.00;99.90;;;;;;5094756;28;20097;-60
2022/02/01 04:54:58;;;;;;;11.50;1.90;;;4.00;99.90;;;;;;5116441;28;20078;-54
2022/02/01 04:57:24;;;;;;;18.38;1.95;;;4.00;99.90;;;;;;5098172;28;20063;-50
2022/02/01 04:59:51;;;;;;;11.05;2.20;;;4.00;99.90;;;;;;5116444;28;20032;-53
2022/02/01 05:02:16;;;;;;;12.68;2.15;;;4.10;99.90;;;;;;5116017;28;20492;-53
2022/02/01 05:04:42;;;;;;;16.60;2.55;;;4.10;99.90;;;;;;5116399;28;20044;-53
2022/02/01 05:07:08;;;;;;;14.65;3.10;;;4.10;99.90;;;;;;5116473;28;20082;-50
2022/02/01 05:09:34;;;;;;;14.63;2.15;;;4.10;99.90;;;;;;5116108;28;20039;-53
2022/02/01 05:12:03;;;;;;;11.70;2.25;;;4.10;99.90;;;;;;5116190;28;20043;-51
2022/02/01 05:14:30;;;;;;;14.13;2.10;;;4.10;99.90;;;;;;5116564;28;20047;-52
2022/02/01 05:16:59;;;;;;;15.98;2.22;;;4.10;99.90;;;;;;5116360;28;21000;-52
2022/02/01 05:22:08;;;;;;;21.80;2.20;;;4.20;99.90;;;;;;5116051;28;20043;-52
2022/02/01 05:24:36;;;;;;;18.30;2.42;;;4.20;99.90;;;;;;5116054;28;20044;-52
2022/02/01 05:27:05;;;;;;;19.90;3.10;;;4.20;99.90;;;;;;5115688;28;20039;-53
2022/02/01 05:29:30;;;;;;;22.23;2.70;;;4.30;99.90;;;;;;5115862;28;20039;-53
2022/02/01 05:31:58;;;;;;;18.20;2.42;;;4.30;99.90;;;;;;5115550;28;20405;-54
2022/02/01 05:34:24;;;;;;;17.13;3.13;;;4.30;99.90;;;;;;5115476;28;20117;-48
2022/02/01 05:36:50;;;;;;;11.30;3.13;;;4.40;99.90;;;;;;5115789;28;20035;-51
2022/02/01 05:39:21;;;;;;;15.85;3.05;;;4.40;99.90;;;;;;5115624;28;20096;-52
2022/02/01 05:41:50;;;;;;;15.45;3.08;;;4.50;99.90;;;;;;5115639;28;20043;-50
2022/02/01 05:44:16;;;;;;;10.48;2.33;;;4.50;99.90;;;;;;5115484;28;20134;-53
2022/02/01 05:46:42;;;;;;;14.70;2.97;;;4.60;99.90;;;;;;5115363;28;20079;-52
2022/02/01 05:49:08;;;;;;;13.48;2.10;;;4.60;99.90;;;;;;5115477;28;20838;-54
2022/02/01 05:51:34;;;;;;;20.77;2.80;;;4.60;99.90;;;;;;5115535;28;20050;-53
2022/02/01 05:54:00;;;;;;;14.40;2.63;;;4.60;99.90;;;;;;5115239;28;20098;-52
2022/02/01 05:56:26;;;;;;;18.25;2.88;;;4.60;99.90;;;;;;5115291;28;20032;-50
2022/02/01 05:58:52;;;;;;;15.73;2.95;;;4.70;99.90;;;;;;5115286;28;20378;-53
2022/02/01 06:01:18;;;;;;;15.43;2.20;;;4.80;99.90;;;;;;5114991;28;20067;-52
2022/02/01 06:03:44;;;;;;;17.77;3.13;;;4.80;99.90;;;;;;5096453;28;20051;-51
2022/02/01 06:06:10;;;;;;;17.05;3.75;;;4.90;99.90;;;;;;5115271;28;20066;-53
2022/02/01 06:08:36;;;;;;;14.75;3.08;;;4.90;99.90;;;;;;5115121;28;20059;-51
2022/02/01 06:11:02;;;;;;;19.30;3.67;;;4.90;99.90;;;;;;5115070;28;20067;-53
2022/02/01 06:13:28;;;;;;;17.02;3.58;;;5.00;99.90;;;;;;5115069;28;20039;-51
2022/02/01 06:15:54;;;;;;;13.00;3.60;;;5.10;99.90;;;;;;5114717;28;20443;-53
2022/02/01 06:18:20;;;;;;;15.95;3.30;;;5.10;99.90;;;;;;5114681;28;20040;-50
2022/02/01 06:20:46;;;;;;;16.20;2.53;;;5.10;99.90;;;;;;5096147;28;20491;-54
2022/02/01 06:23:16;;;;;;;21.00;3.20;;;5.10;99.90;;;;;;5114834;28;20043;-53
2022/02/01 06:25:50;;;;;;;20.05;3.28;;;5.10;99.90;;;;;;5114671;28;20038;-54
2022/02/01 06:28:24;;;;;;;18.00;2.92;;;5.00;99.90;;;;;;5114556;28;20110;-52
2022/02/01 06:30:51;;;;;;;23.08;3.72;;;5.10;99.90;;;;;;5114559;28;20084;-52
2022/02/01 06:33:18;;;;;;;18.25;3.63;;;5.10;99.90;;;;;;5114584;28;20044;-52
2022/02/01 06:35:44;;;;;;;17.50;4.10;;;5.10;99.90;;;;;;5114697;28;20078;-52
2022/02/01 06:38:11;;;;;;;26.90;4.25;;;5.00;99.90;;;;;;5114522;28;20047;-54
2022/02/01 06:40:37;;;;;;;17.50;3.42;;;5.00;99.90;;;;;;5095981;28;20047;-52
2022/02/01 06:43:03;;;;;;;21.70;4.13;;;5.00;99.90;;;;;;5114597;28;20091;-52
2022/02/01 06:45:30;;;;;;;20.40;3.75;;;5.00;99.90;;;;;;5114023;28;20083;-54
2022/02/01 06:47:56;;;;;;;21.88;4.55;;;4.90;99.90;;;;;;5114802;28;20088;-53
2022/02/01 06:50:22;;;;;;;15.93;3.83;;;5.10;99.90;;;;;;5114679;28;20044;-54
2022/02/01 06:52:59;;;;;;;24.20;4.45;;;4.90;99.90;;;;;;5114671;28;20046;-53
2022/02/01 06:55:44;;;;;;;30.13;3.92;;;4.90;99.90;;;;;;5114127;28;20048;-53
2022/02/01 06:58:15;;;;;;;21.85;5.10;;;4.90;99.90;;;;;;5114374;28;20398;-54
2022/02/01 07:00:42;;;;;;;31.88;4.47;;;4.90;99.90;;;;;;5114342;28;20043;-50
2022/02/01 07:03:09;;;;;;;26.30;5.55;;;4.90;99.90;;;;;;5114023;28;20394;-52
2022/02/01 07:05:34;;;;;;;25.92;5.18;;;4.90;99.90;;;;;;5113729;28;20036;-54
2022/02/01 07:08:00;;;;;;;21.50;5.15;;;4.80;99.90;;;;;;5113910;28;20123;-52
2022/02/01 07:10:26;;;;;;;30.85;6.18;;;4.80;99.90;;;;;;5113760;28;20040;-51
2022/02/01 07:12:51;;;;;;;20.35;4.80;;;4.80;99.90;;;;;;5113798;28;20035;-53
2022/02/01 07:15:17;;;;;;;28.40;5.88;;;4.90;99.90;;;;;;5094560;28;20043;-52
2022/02/01 07:17:47;;;;;;;21.60;5.57;;;4.80;99.90;;;;;;5095127;28;20061;-56
2022/02/01 07:20:14;;;;;;;24.45;5.18;;;4.80;99.90;;;;;;5113591;28;20363;-55
2022/02/01 07:22:42;;;;;;;22.92;5.60;;;4.80;99.90;;;;;;5113400;28;20543;-53
2022/02/01 07:25:15;;;;;;;20.20;5.25;;;4.80;99.90;;;;;;5113562;28;20036;-55
2022/02/01 07:27:47;;;;;;;17.45;5.82;;;4.80;99.90;;;;;;5096168;28;20039;-55
2022/02/01 07:30:15;;;;;;;27.00;5.47;;;4.80;99.90;;;;;;5113451;28;20039;-53
2022/02/01 07:32:41;;;;;;;21.42;5.47;;;4.80;99.90;;;;;;5113240;28;20036;-53
2022/02/01 07:35:07;;;;;;;24.15;5.57;;;4.80;99.90;;;;;;5113230;28;20032;-54
2022/02/01 07:37:34;;;;;;;15.07;5.47;;;4.90;99.90;;;;;;5113104;28;20397;-51
2022/02/01 07:40:02;;;;;;;15.95;5.65;;;4.80;99.90;;;;;;5113333;28;20084;-53
2022/02/01 07:42:28;;;;;;;20.80;6.30;;;4.90;99.90;;;;;;5094570;28;20048;-51
2022/02/01 07:44:59;;;;;;;17.52;6.40;;;4.90;99.90;;;;;;5113132;28;20097;-53
2022/02/01 07:47:25;;;;;;;13.70;6.22;;;4.90;99.90;;;;;;5094723;28;20055;-54
2022/02/01 07:49:51;;;;;;;21.10;6.00;;;5.00;99.90;;;;;;5094537;28;20040;-52
2022/02/01 07:52:17;;;;;;;19.52;6.78;;;5.00;99.90;;;;;;5113312;28;20036;-53
2022/02/01 07:54:43;;;;;;;17.38;6.32;;;5.00;99.90;;;;;;5112976;28;20047;-54
2022/02/01 07:57:09;;;;;;;15.00;6.53;;;5.10;99.90;;;;;;5112915;28;20164;-54
2022/02/01 07:59:35;;;;;;;14.60;6.35;;;5.10;99.90;;;;;;5112847;28;20111;-54
2022/02/01 08:02:03;;;;;;;11.80;7.03;;;5.10;99.90;;;;;;5094128;28;20097;-54
2022/02/01 08:04:33;;;;;;;12.35;7.10;;;5.20;99.90;;;;;;5112621;28;20054;-53
2022/02/01 08:07:01;;;;;;;12.68;7.30;;;5.20;99.90;;;;;;5112665;28;20062;-52
2022/02/01 08:09:38;;;;;;;15.75;6.85;;;5.20;99.90;;;;;;5112718;28;20073;-54
2022/02/01 08:12:12;;;;;;;11.13;6.40;;;5.20;99.90;;;;;;5112744;28;20059;-53
2022/02/01 08:17:20;;;;;;;12.93;7.30;;;5.20;99.90;;;;;;5112497;28;20047;-54
2022/02/01 08:25:02;;;;;;;11.35;6.43;;;5.30;99.90;;;;;;5112448;28;20040;-52
2022/02/01 08:27:29;;;;;;;9.52;6.30;;;5.40;99.90;;;;;;5111394;28;20039;-52
2022/02/01 08:29:55;;;;;;;9.18;5.78;;;5.40;99.90;;;;;;5112566;28;20114;-53
2022/02/01 08:32:21;;;;;;;10.85;6.53;;;5.40;99.90;;;;;;5112222;28;20508;-54
2022/02/01 08:34:47;;;;;;;8.85;6.97;;;5.50;99.90;;;;;;5112568;28;20039;-54
2022/02/01 08:37:13;;;;;;;12.10;6.82;;;5.50;99.90;;;;;;5112142;28;20499;-52
2022/02/01 08:39:38;;;;;;;11.13;6.72;;;5.50;99.90;;;;;;5112148;28;20046;-55
2022/02/01 08:42:04;;;;;;;12.65;6.68;;;5.50;99.90;;;;;;5111981;28;20051;-52
2022/02/01 08:44:31;;;;;;;8.77;6.60;;;5.50;99.90;;;;;;5112169;28;20046;-55
2022/02/01 08:46:58;;;;;;;10.25;6.18;;;5.50;99.90;;;;;;5112588;28;20053;-54
2022/02/01 08:49:24;;;;;;;7.88;5.35;;;5.60;99.90;;;;;;5112400;28;20085;-52
2022/02/01 08:51:58;;;;;;;10.05;5.85;;;5.60;99.90;;;;;;5112318;28;20390;-52
2022/02/01 08:54:26;;;;;;;9.55;5.65;;;5.60;99.90;;;;;;5111997;28;20379;-52
2022/02/01 08:59:38;;;;;;;7.68;5.35;;;5.70;99.90;;;;;;5112111;28;20044;-55
2022/02/01 09:02:05;;;;;;;8.43;4.75;;;5.70;99.90;;;;;;5112125;28;20144;-54
2022/02/01 09:04:31;;;;;;;4.75;4.20;;;5.80;99.90;;;;;;5112068;28;20058;-52
2022/02/01 09:06:58;;;;;;;6.93;4.57;;;5.80;99.90;;;;;;5093642;28;20056;-54
2022/02/01 09:09:25;;;;;;;7.30;4.30;;;5.80;99.90;;;;;;5112262;28;20032;-55
2022/02/01 09:11:51;;;;;;;6.70;4.47;;;5.90;99.90;;;;;;5112150;28;20080;-54
2022/02/01 09:14:16;;;;;;;4.80;3.80;;;5.90;99.90;;;;;;5112025;28;20040;-54
2022/02/01 09:16:42;;;;;;;4.90;3.67;;;6.00;99.90;;;;;;5093283;28;20058;-54
2022/02/01 09:19:10;;;;;;;6.05;3.45;;;6.00;99.90;;;;;;5093508;28;20066;-51
2022/02/01 09:21:36;;;;;;;5.20;3.42;;;6.00;99.90;;;;;;5111933;28;20594;-54
2022/02/01 09:24:02;;;;;;;6.25;3.65;;;6.10;99.90;;;;;;5093765;28;20147;-55
2022/02/01 09:26:28;;;;;;;6.22;3.13;;;6.10;99.90;;;;;;5112206;28;20028;-53
2022/02/01 09:28:53;;;;;;;3.88;2.80;;;6.20;99.90;;;;;;5111612;28;20134;-54
2022/02/01 09:31:19;;;;;;;3.80;3.08;;;6.20;99.90;;;;;;5111888;28;20069;-53
2022/02/01 09:33:45;;;;;;;10.65;3.10;;;6.20;99.90;;;;;;5111721;28;20406;-51
2022/02/01 09:36:10;;;;;;;4.03;2.10;;;6.30;99.90;;;;;;5111573;28;20047;-54
2022/02/01 09:38:36;;;;;;;6.15;2.70;;;6.30;99.90;;;;;;5112564;28;20055;-55
2022/02/01 09:41:03;;;;;;;5.68;2.40;;;6.40;99.90;;;;;;5115629;28;20057;-53
2022/02/01 09:43:29;;;;;;;3.60;2.13;;;6.50;99.90;;;;;;5115366;28;20474;-52
2022/02/01 09:45:57;;;;;;;5.93;2.40;;;6.50;99.90;;;;;;5115212;28;20516;-55
2022/02/01 09:48:23;;;;;;;3.50;2.20;;;6.60;99.90;;;;;;5115226;28;20063;-51
2022/02/01 09:50:50;;;;;;;4.07;1.98;;;6.60;99.90;;;;;;5115282;28;20047;-54
2022/02/01 09:53:17;;;;;;;6.15;2.20;;;6.60;99.90;;;;;;5115541;28;20442;-54
2022/02/01 09:55:43;;;;;;;6.60;2.45;;;6.60;99.90;;;;;;5115422;28;20067;-52
2022/02/01 09:58:12;;;;;;;4.50;2.40;;;6.70;99.90;;;;;;5115226;28;20066;-55
2022/02/01 10:00:52;;;;;;;3.42;1.95;;;6.70;99.90;;;;;;5115058;28;20070;-54
2022/02/01 10:03:20;;;;;;;4.25;2.05;;;6.70;99.90;;;;;;5114992;28;20091;-53
2022/02/01 10:06:12;;;;;;;5.50;2.47;;;6.70;99.90;;;;;;5115015;28;20042;-55
2022/02/01 10:08:38;;;;;;;3.63;2.30;;;6.80;99.90;;;;;;5115367;28;20043;-55
2022/02/01 10:11:08;;;;;;;3.50;2.20;;;6.80;99.90;;;;;;5114927;28;20063;-53
2022/02/01 10:13:37;;;;;;;5.10;2.05;;;6.90;99.90;;;;;;5115267;28;20370;-53
2022/02/01 10:16:14;;;;;;;3.22;2.00;;;7.00;99.90;;;;;;5079576;28;20051;-54
2022/02/01 10:18:40;;;;;;;4.80;2.42;;;7.00;99.90;;;;;;5114741;28;20043;-53
2022/02/01 10:21:09;;;;;;;4.05;2.40;;;7.00;99.90;;;;;;5115037;28;20127;-52
2022/02/01 10:23:37;;;;;;;6.35;1.98;;;7.00;99.90;;;;;;5114722;28;20071;-54
2022/02/01 10:26:11;;;;;;;6.40;2.28;;;7.00;99.90;;;;;;5114626;28;20114;-52
2022/02/01 10:31:33;;;;;;;5.90;1.90;;;7.10;99.90;;;;;;5096982;28;20097;-51
2022/02/01 10:34:26;;;;;;;4.63;2.08;;;7.20;99.90;;;;;;5114558;28;20478;-53
2022/02/01 10:36:53;;;;;;;4.00;1.90;;;7.20;99.90;;;;;;5095291;28;20051;-54
2022/02/01 10:39:30;;;;;;;4.03;2.08;;;7.30;99.90;;;;;;5095932;28;20090;-54
2022/02/01 10:42:01;;;;;;;5.93;2.42;;;7.30;99.90;;;;;;5114169;28;20039;-54
2022/02/01 10:44:55;;;;;;;5.60;1.95;;;7.30;99.90;;;;;;5114396;28;20067;-53
2022/02/01 10:47:36;;;;;;;6.07;2.67;;;7.30;99.90;;;;;;5114347;28;20120;-54
2022/02/01 10:50:09;;;;;;;6.43;2.50;;;7.40;99.90;;;;;;5113449;28;20105;-54
2022/02/01 10:52:36;;;;;;;7.53;2.90;;;7.40;99.90;;;;;;5114370;28;20867;-52
2022/02/01 10:55:04;;;;;;;6.00;2.25;;;7.40;99.90;;;;;;5114378;28;20449;-52
2022/02/01 10:57:30;;;;;;;8.50;3.42;;;7.40;99.90;;;;;;5114038;28;20043;-53
2022/02/01 10:59:56;;;;;;;10.57;3.15;;;7.40;99.90;;;;;;5114432;28;20071;-52
2022/02/01 11:02:27;;;;;;;9.35;2.70;;;7.40;99.90;;;;;;5114102;28;20078;-52
2022/02/01 11:04:53;;;;;;;5.78;2.47;;;7.50;99.90;;;;;;5113828;28;20071;-53
2022/02/01 11:07:20;;;;;;;9.05;2.95;;;7.50;99.90;;;;;;5113942;28;20389;-53
2022/02/01 11:09:46;;;;;;;8.10;2.97;;;7.50;99.90;;;;;;5113836;28;20035;-53
2022/02/01 11:12:13;;;;;;;13.20;3.20;;;7.50;99.90;;;;;;5114136;28;20043;-54
2022/02/01 11:14:45;;;;;;;10.27;3.38;;;7.50;99.90;;;;;;5095389;28;20471;-54
2022/02/01 11:17:15;;;;;;;8.77;2.53;;;7.60;99.90;;;;;;5113857;28;20046;-50
2022/02/01 11:19:46;;;;;;;9.30;2.45;;;7.60;99.90;;;;;;5113586;28;20043;-54
2022/02/01 11:22:24;;;;;;;9.07;3.05;;;7.60;99.90;;;;;;5113440;28;20039;-53
2022/02/01 11:24:52;;;;;;;11.55;3.10;;;7.60;99.90;;;;;;5113358;28;20046;-53
2022/02/01 11:27:29;;;;;;;11.88;3.42;;;7.70;99.90;;;;;;5113278;28;20074;-52
2022/02/01 11:32:34;;;;;;;16.63;4.07;;;7.70;99.90;;;;;;5113051;28;20050;-53
2022/02/01 11:35:05;;;;;;;12.80;3.83;;;7.70;99.90;;;;;;5113248;28;20039;-53
2022/02/01 11:37:31;;;;;;;10.23;3.70;;;7.70;99.90;;;;;;5113368;28;20043;-54
2022/02/01 11:39:58;;;;;;;20.08;4.10;;;7.70;99.90;;;;;;5113234;28;20036;-54
2022/02/01 11:42:32;;;;;;;18.52;3.88;;;7.70;99.90;;;;;;5113084;28;20036;-53
2022/02/01 11:45:05;;;;;;;13.88;3.83;;;7.70;99.90;;;;;;5112960;28;20037;-53
2022/02/01 11:47:36;;;;;;;11.70;3.20;;;7.70;99.90;;;;;;5112885;28;20058;-53
2022/02/01 11:50:25;;;;;;;12.23;3.08;;;7.80;99.90;;;;;;5094735;28;20478;-51
2022/02/01 11:52:53;;;;;;;11.02;3.00;;;7.70;99.90;;;;;;5113068;28;20032;-52
2022/02/01 11:55:21;;;;;;;17.85;3.38;;;7.80;99.90;;;;;;5094463;28;20085;-54
2022/02/01 11:57:52;;;;;;;13.15;3.13;;;7.80;99.90;;;;;;5112763;28;20039;-53
2022/02/01 12:00:25;;;;;;;12.85;3.22;;;7.80;99.90;;;;;;5094736;28;20047;-54
2022/02/01 12:02:53;;;;;;;21.20;3.05;;;7.80;99.90;;;;;;5112597;28;20392;-54
2022/02/01 12:05:31;;;;;;;17.95;2.97;;;7.90;99.90;;;;;;5112873;28;20421;-52
2022/02/01 12:08:06;;;;;;;10.15;2.15;;;7.90;99.90;;;;;;5112655;28;20389;-53
2022/02/01 12:10:41;;;;;;;15.20;3.00;;;7.90;99.90;;;;;;5112561;28;20446;-54
2022/02/01 12:13:08;;;;;;;15.23;2.63;;;8.00;99.90;;;;;;5112588;28;20032;-54
2022/02/01 12:15:37;;;;;;;19.73;3.38;;;8.00;99.90;;;;;;5112585;28;20477;-52
2022/02/01 12:18:08;;;;;;;13.82;3.60;;;8.10;99.90;;;;;;5112911;28;20110;-51
2022/02/01 12:20:37;;;;;;;19.30;4.43;;;8.10;99.90;;;;;;5112399;28;20100;-52
2022/02/01 12:23:22;;;;;;;23.45;3.53;;;8.10;99.90;;;;;;5112360;28;20135;-53
2022/02/01 12:25:48;;;;;;;25.55;3.75;;;8.20;99.90;;;;;;5112492;28;20176;-54
2022/02/01 12:28:20;;;;;;;19.67;3.78;;;8.20;99.90;;;;;;5094063;28;20055;-54
2022/02/01 12:30:47;;;;;;;19.48;3.50;;;8.20;99.90;;;;;;5112290;28;20101;-54
2022/02/01 12:33:18;;;;;;;18.13;4.22;;;8.40;99.90;;;;;;5112201;28;20037;-53
2022/02/01 12:35:45;;;;;;;27.10;4.18;;;8.40;99.90;;;;;;5112113;28;20043;-52
2022/02/01 12:38:19;;;;;;;21.92;3.42;;;8.40;99.90;;;;;;5112445;28;20036;-54
2022/02/01 12:40:45;;;;;;;31.35;3.88;;;8.40;99.90;;;;;;5094152;28;20166;-54
2022/02/01 12:43:19;;;;;;;14.35;2.83;;;8.40;99.90;;;;;;5112317;28;20043;-53
2022/02/01 12:48:10;;;;;;;20.17;3.85;;;8.40;99.90;;;;;;5112190;28;21347;-54
2022/02/01 12:50:36;;;;;;;27.38;4.60;;;8.50;99.90;;;;;;5112262;28;20113;-53
2022/02/01 12:53:04;;;;;;;21.23;4.25;;;8.50;99.90;;;;;;5111904;28;20031;-54
2022/02/01 12:55:30;;;;;;;24.70;4.18;;;8.50;99.90;;;;;;5112147;28;20038;-53
2022/02/01 12:58:03;;;;;;;34.35;3.88;;;8.50;99.90;;;;;;5111996;28;20485;-53
2022/02/01 13:00:30;;;;;;;36.08;5.20;;;8.50;99.90;;;;;;5112317;28;20110;-53
2022/02/01 13:03:03;;;;;;;27.40;4.40;;;8.50;99.90;;;;;;5112043;28;20082;-54
2022/02/01 13:05:30;;;;;;;30.75;4.40;;;8.50;99.90;;;;;;5111951;28;20061;-51
2022/02/01 13:21:02;;;;;;;28.23;4.45;;;8.50;99.90;;;;;;5115732;28;20515;-53
2022/02/01 13:23:58;;;;;;;30.42;5.60;;;8.50;99.90;;;;;;5115825;28;20031;-52
2022/02/01 13:26:32;;;;;;;36.38;5.65;;;8.60;99.90;;;;;;5032879;28;20053;-49
2022/02/01 13:28:59;;;;;;;27.23;5.25;;;8.60;99.90;;;;;;5033064;28;20033;-52
2022/02/01 13:31:29;;;;;;;29.45;4.50;;;8.60;99.90;;;;;;5032912;28;20057;-53
2022/02/01 13:34:00;;;;;;;30.30;4.72;;;8.60;99.90;;;;;;5017021;28;20052;-54
2022/02/01 13:36:26;;;;;;;31.15;4.78;;;8.60;99.90;;;;;;5032901;28;20049;-53
2022/02/01 13:38:55;;;;;;;21.15;4.63;;;8.70;99.90;;;;;;5032813;28;20095;-54
2022/02/01 13:41:23;;;;;;;24.30;3.88;;;8.60;99.90;;;;;;5032641;28;20132;-52
2022/02/01 13:43:53;;;;;;;20.08;4.57;;;8.60;99.90;;;;;;5032607;28;20476;-55
2022/02/01 13:46:22;;;;;;;31.55;4.38;;;8.70;99.90;;;;;;5032477;28;20088;-52
2022/02/01 13:49:04;;;;;;;27.00;4.50;;;8.70;99.90;;;;;;5032499;28;20120;-53
2022/02/01 13:51:32;;;;;;;26.38;4.70;;;8.80;99.90;;;;;;5032568;28;20049;-52
2022/02/01 13:54:03;;;;;;;25.65;4.35;;;8.80;99.90;;;;;;5032523;28;20057;-53
2022/02/01 13:56:35;;;;;;;40.17;5.15;;;8.80;99.90;;;;;;5032389;28;20083;-51
2022/02/01 13:59:11;;;;;;;27.20;5.65;;;8.70;99.90;;;;;;5032454;28;20049;-50
2022/02/01 14:01:42;;;;;;;27.92;5.80;;;8.70;99.90;;;;;;5034819;28;20438;-54
2022/02/01 14:04:16;;;;;;;21.45;4.60;;;8.70;99.90;;;;;;5115235;28;20088;-54
2022/02/01 14:06:55;;;;;;;24.10;4.57;;;8.80;99.90;;;;;;5115070;28;20039;-51
2022/02/01 14:09:47;;;;;;;25.20;4.67;;;8.80;99.90;;;;;;5114983;28;20501;-54
2022/02/01 14:28:30;;;;;;;28.23;4.72;;;8.80;99.90;;;;;;5114901;28;20117;-51
2022/02/01 14:33:54;;;;;;;26.75;4.75;;;8.80;99.90;;;;;;5114628;28;20127;-51
2022/02/01 14:36:21;;;;;;;32.97;5.15;;;8.70;99.90;;;;;;5095804;28;20039;-53
2022/02/01 14:46:45;;;;;;;30.83;5.10;;;8.70;99.90;;;;;;5114238;28;20062;-53
2022/02/01 14:49:10;;;;;;;29.27;4.95;;;8.70;99.90;;;;;;5114853;28;20180;-63
2022/02/01 14:51:37;;;;;;;37.45;6.97;;;8.70;99.90;;;;;;5114654;28;20510;-62
2022/02/01 14:54:09;;;;;;;36.53;5.82;;;8.70;99.90;;;;;;5114436;28;20074;-63
2022/02/01 14:56:37;;;;;;;33.95;6.57;;;8.70;99.90;;;;;;5096171;28;20051;-63
2022/02/01 15:04:40;;;;;;;30.58;4.85;;;8.60;99.90;;;;;;5096364;28;20454;-61
2022/02/01 15:07:14;;;;;;;30.33;6.28;;;8.60;99.90;;;;;;5114358;28;20047;-62
2022/02/01 15:15:09;;;;;;;41.90;6.25;;;8.70;99.90;;;;;;5113683;28;20043;-53
2022/02/01 15:17:36;;;;;;;42.80;6.57;;;8.70;99.90;;;;;;5113865;28;20126;-53
2022/02/01 15:20:05;;;;;;;27.95;5.32;;;8.70;99.90;;;;;;5113468;28;20039;-53
2022/02/01 15:22:30;;;;;;;36.40;6.85;;;8.70;99.90;;;;;;5113379;28;20046;-53
2022/02/01 15:24:57;;;;;;;40.25;6.75;;;8.70;99.90;;;;;;5113458;28;20031;-51